»·PEaware :: UAL498 KORD-KIAD

UAL498 :: KORD-KIAD

FLIGHT INFORMATION

Flight Status: Arrived
Operator:
United Airlines
More flights by this operator :: More flights under this callsign
Pilot: Kevin D. (15651)
Aircraft: BOEING 737-800
(B738)
More flights by this aircraft type
Origin: KORD Chicago-O'Hare Intl
United States
Destination: KIAD Washington Dulles Intl
United States
More flights between these airports :: More routes between these airports
Route: MOBLE ADIME OTENS ANEWA RIEKE DJB J34 AIR J162 MGW GIBBZ2
File this flight plan on PilotEdge
Remarks:
Altitude:
(Current/Filed)
37,000ft
Speed:
(Current/Filed)
510kts
Departed: 21-Sep-17 01:29 PM
Arrived: 21-Sep-17 03:29 PM
Distance/Time
Traveled:
511nm/2:00
Distance/Time
To Go:
Arrived

Flight Plot

Page will automatically refresh every two minutes.

Flight plan parsing failed; only flown route is shown


Map Options




Map Legend


Flown Route
Filed Route
Departure Airport
Arrival Airport
Navaid (VOR, NDB)
Fix

Horizontal Profiles

Position Reports

Time Latitude Longitude Heading Altitude Ground
Speed
21-Sep-17 13:07 41.976631 -87.907579 30 673ft 0kts
21-Sep-17 13:08 41.976631 -87.907579 30 673ft 0kts
21-Sep-17 13:09 41.976631 -87.907579 30 673ft 0kts
21-Sep-17 13:10 41.976631 -87.907579 30 673ft 0kts
21-Sep-17 13:11 41.976631 -87.907579 30 673ft 0kts
21-Sep-17 13:12 41.976631 -87.907579 30 673ft 0kts
21-Sep-17 13:13 41.976631 -87.907579 30 673ft 0kts
21-Sep-17 13:14 41.976631 -87.907579 30 673ft 0kts
21-Sep-17 13:15 41.976631 -87.907579 30 673ft 0kts
21-Sep-17 13:16 41.976631 -87.907579 30 673ft 0kts
21-Sep-17 13:17 41.976631 -87.907579 30 673ft 0kts
21-Sep-17 13:18 41.976631 -87.907579 30 673ft 0kts
21-Sep-17 13:19 41.976631 -87.907579 30 673ft 0kts
21-Sep-17 13:20 41.976432 -87.907721 30 674ft 1kts
21-Sep-17 13:21 41.976120 -87.907698 310 673ft 2kts
21-Sep-17 13:22 41.976092 -87.907319 248 674ft 0kts
21-Sep-17 13:23 41.976092 -87.907319 248 673ft 0kts
21-Sep-17 13:24 41.976092 -87.907319 248 673ft 0kts
21-Sep-17 13:25 41.976092 -87.907319 248 673ft 0kts
21-Sep-17 13:26 41.976090 -87.907325 248 673ft 0kts
21-Sep-17 13:27 41.975412 -87.909777 249 673ft 13kts
21-Sep-17 13:28 41.973345 -87.910087 136 674ft 14kts
21-Sep-17 13:29 41.971514 -87.906091 93 673ft 21kts
21-Sep-17 13:30 41.970387 -87.903190 91 673ft 14kts
21-Sep-17 13:31 41.970413 -87.897649 89 673ft 27kts
21-Sep-17 13:32 41.970266 -87.890873 137 673ft 16kts
21-Sep-17 13:33 41.969097 -87.893374 269 674ft 47kts
21-Sep-17 13:34 41.969088 -87.929461 267 916ft 183kts
21-Sep-17 13:35 41.954941 -87.978279 206 2376ft 208kts
21-Sep-17 13:36 41.909506 -87.964806 134 3157ft 269kts
21-Sep-17 13:37 41.897851 -87.897316 75 5028ft 284kts
21-Sep-17 13:38 41.922202 -87.831248 63 6716ft 295kts
21-Sep-17 13:39 41.948626 -87.759300 73 8461ft 302kts
21-Sep-17 13:40 41.958316 -87.687746 88 9928ft 308kts
21-Sep-17 13:41 41.960108 -87.606186 92 10847ft 339kts
21-Sep-17 13:42 41.958251 -87.490930 93 12645ft 354kts
21-Sep-17 13:43 41.954621 -87.357988 94 14731ft 364kts
21-Sep-17 13:44 41.950532 -87.221904 94 17323ft 377kts
21-Sep-17 13:45 41.946045 -87.079944 93 19993ft 391kts
21-Sep-17 13:46 41.947531 -86.932555 88 22540ft 402kts
21-Sep-17 13:47 41.949811 -86.781481 88 24817ft 413kts
21-Sep-17 13:48 41.951892 -86.625878 88 26827ft 424kts
21-Sep-17 13:49 41.953752 -86.469470 87 29177ft 417kts
21-Sep-17 13:50 41.955377 -86.316208 88 31093ft 413kts
21-Sep-17 13:51 41.945777 -86.164469 103 32587ft 414kts
21-Sep-17 13:52 41.917358 -86.016130 104 34010ft 411kts
21-Sep-17 13:53 41.888702 -85.871140 104 35221ft 408kts
21-Sep-17 13:54 41.859544 -85.724987 104 36311ft 406kts
21-Sep-17 13:55 41.830410 -85.580009 104 37094ft 407kts
21-Sep-17 13:56 41.800407 -85.431804 104 37103ft 422kts
21-Sep-17 13:57 41.769106 -85.278302 105 37105ft 438kts
21-Sep-17 13:58 41.736345 -85.119084 104 37113ft 454kts
21-Sep-17 13:59 41.702374 -84.955127 103 37100ft 460kts
21-Sep-17 14:00 41.668957 -84.791621 97 37101ft 458kts
21-Sep-17 14:01 41.657679 -84.623470 92 37114ft 456kts
21-Sep-17 14:02 41.647934 -84.455144 92 37114ft 456kts
21-Sep-17 14:03 41.638038 -84.287326 92 37104ft 457kts
21-Sep-17 14:04 41.627889 -84.119312 92 37098ft 456kts
21-Sep-17 14:05 41.617474 -83.951033 92 37098ft 456kts
21-Sep-17 14:06 41.606826 -83.783124 92 37108ft 457kts
21-Sep-17 14:07 41.595923 -83.614682 92 37106ft 457kts
21-Sep-17 14:08 41.586041 -83.446971 92 37108ft 457kts
21-Sep-17 14:09 41.575918 -83.278787 93 37104ft 457kts
21-Sep-17 14:10 41.565560 -83.110960 92 37104ft 457kts
21-Sep-17 14:11 41.554920 -82.942745 92 37112ft 454kts
21-Sep-17 14:12 41.544188 -82.776877 92 37112ft 449kts
21-Sep-17 14:13 41.533323 -82.612093 92 37129ft 450kts
21-Sep-17 14:14 41.508904 -82.450413 117 37149ft 458kts
21-Sep-17 14:15 41.438258 -82.310401 123 37137ft 460kts
21-Sep-17 14:16 41.363697 -82.174626 131 37121ft 462kts
21-Sep-17 14:17 41.266120 -82.067815 140 37137ft 464kts
21-Sep-17 14:18 41.167964 -81.967049 140 37147ft 465kts
21-Sep-17 14:19 41.068095 -81.865302 140 37157ft 468kts
21-Sep-17 14:20 40.967627 -81.763359 138 37157ft 469kts
21-Sep-17 14:21 40.871231 -81.665689 137 37145ft 469kts
21-Sep-17 14:22 40.776188 -81.569882 137 37151ft 469kts
21-Sep-17 14:23 40.681737 -81.475046 137 37145ft 469kts
21-Sep-17 14:24 40.590657 -81.383918 137 37144ft 469kts
21-Sep-17 14:25 40.500179 -81.293708 138 37148ft 470kts
21-Sep-17 14:26 40.407506 -81.201650 138 37147ft 469kts
21-Sep-17 14:27 40.312640 -81.107746 138 37149ft 470kts
21-Sep-17 14:28 40.217446 -81.013770 139 37155ft 460kts
21-Sep-17 14:29 40.127392 -80.925216 140 37161ft 454kts
21-Sep-17 14:30 40.040222 -80.839741 139 37163ft 451kts
21-Sep-17 14:31 39.974306 -80.725725 120 37166ft 447kts
21-Sep-17 14:32 39.914549 -80.601551 119 37165ft 446kts
21-Sep-17 14:33 39.852328 -80.471530 119 37157ft 446kts
21-Sep-17 14:34 39.787557 -80.336624 120 37155ft 446kts
21-Sep-17 14:35 39.744937 -80.248155 120 37160ft 446kts
21-Sep-17 14:36 39.744937 -80.248155 120 37160ft 446kts
21-Sep-17 14:37 39.744937 -80.248155 120 37160ft 446kts
21-Sep-17 14:38 39.744937 -80.248155 120 37160ft 446kts
21-Sep-17 14:39 39.744937 -80.248155 120 37160ft 446kts
21-Sep-17 14:40 39.744937 -80.248155 120 37160ft 446kts
21-Sep-17 14:41 39.744937 -80.248155 120 37160ft 446kts
21-Sep-17 14:42 39.744937 -80.248155 120 37160ft 446kts
21-Sep-17 14:43 39.744937 -80.248155 120 37160ft 446kts
21-Sep-17 14:44 39.744937 -80.248155 120 37160ft 446kts
21-Sep-17 14:45 39.744937 -80.248155 120 37160ft 446kts
21-Sep-17 14:46 39.744937 -80.248155 120 37160ft 446kts
21-Sep-17 14:47 39.744937 -80.248155 120 37160ft 446kts
21-Sep-17 14:48 39.744937 -80.248155 120 37160ft 446kts
21-Sep-17 14:49 39.744937 -80.248155 120 37160ft 446kts
21-Sep-17 14:50 39.744937 -80.248155 120 37160ft 446kts
21-Sep-17 14:51 39.744937 -80.248155 120 37160ft 446kts
21-Sep-17 14:52 39.744937 -80.248155 120 37160ft 446kts
21-Sep-17 14:53 39.744937 -80.248155 120 37160ft 446kts
21-Sep-17 14:54 39.744937 -80.248155 120 37160ft 446kts
21-Sep-17 14:55 39.697453 -80.149831 120 37137ft 430kts
21-Sep-17 14:56 39.638275 -80.027892 120 36042ft 387kts
21-Sep-17 14:57 39.582542 -79.913364 120 34298ft 380kts
21-Sep-17 14:58 39.544222 -79.787172 102 32510ft 388kts
21-Sep-17 14:59 39.519841 -79.654921 101 30756ft 389kts
21-Sep-17 15:00 39.495553 -79.521166 101 28975ft 393kts
21-Sep-17 15:01 39.471326 -79.386958 101 27193ft 398kts
21-Sep-17 15:02 39.447108 -79.255447 102 25433ft 397kts
21-Sep-17 15:03 39.423718 -79.125833 101 23706ft 382kts
21-Sep-17 15:04 39.401958 -79.001778 101 22056ft 367kts
21-Sep-17 15:05 39.381392 -78.885960 102 20517ft 359kts
21-Sep-17 15:06 39.361907 -78.777527 102 19073ft 353kts
21-Sep-17 15:07 39.343367 -78.674860 101 17704ft 347kts
21-Sep-17 15:08 39.322971 -78.562479 101 16058ft 338kts
21-Sep-17 15:09 39.302896 -78.450870 101 14559ft 333kts
21-Sep-17 15:10 39.275480 -78.347969 120 12854ft 332kts
21-Sep-17 15:11 39.233650 -78.266170 122 11395ft 295kts
21-Sep-17 15:12 39.191421 -78.185432 122 10162ft 285kts
21-Sep-17 15:13 39.163374 -78.132147 122 9448ft 271kts
21-Sep-17 15:14 39.119414 -78.048786 122 9275ft 277kts
21-Sep-17 15:15 39.079508 -77.973396 122 8647ft 279kts
21-Sep-17 15:16 39.041836 -77.902492 122 7533ft 271kts
21-Sep-17 15:17 39.014122 -77.850389 122 6940ft 266kts
21-Sep-17 15:18 38.975267 -77.777369 122 6363ft 253kts
21-Sep-17 15:19 38.963037 -77.723975 97 5988ft 245kts
21-Sep-17 15:20 38.954796 -77.654072 101 5419ft 248kts
21-Sep-17 15:21 38.918954 -77.609306 154 4814ft 249kts
21-Sep-17 15:22 38.873121 -77.584017 156 4196ft 234kts
21-Sep-17 15:23 38.822084 -77.575557 181 3565ft 230kts
21-Sep-17 15:24 38.769890 -77.577003 174 3324ft 231kts
21-Sep-17 15:25 38.740578 -77.536668 84 3031ft 201kts
21-Sep-17 15:26 38.746193 -77.486682 78 2995ft 203kts
21-Sep-17 15:27 38.765758 -77.443750 30 2952ft 186kts
21-Sep-17 15:28 38.806660 -77.438410 0 2593ft 178kts
21-Sep-17 15:29 38.843566 -77.437815 0 1873ft 154kts
21-Sep-17 15:30 38.873877 -77.437187 0 1329ft 143kts
21-Sep-17 15:31 38.904288 -77.436636 359 774ft 147kts
21-Sep-17 15:32 38.935258 -77.436273 359 320ft 117kts
21-Sep-17 15:33 38.945561 -77.437517 331 320ft 20kts
21-Sep-17 15:34 38.945329 -77.439750 180 320ft 11kts
21-Sep-17 15:35 38.944090 -77.443744 273 320ft 19kts
21-Sep-17 15:36 38.944816 -77.445116 335 319ft 0kts

Navigation Log

Ident Type
Flight plan parsing failed, navigation log unavailable